Time;durP1;ratioP1;P1;durP2;ratioP2;P2;SDS_P1;SDS_P2;PMS_P1;PMS_P2;Temp;Humidity;BMP_temperature;BMP_pressure;BME280_temperature;BME280_humidity;BME280_pressure;Samples;Min_cycle;Max_cycle;Signal;HPM_P1;HPM_P2
2024/01/17 00:01:02;;;;;;;;;;;11.40;40.00;;;11.54;42.87;99431.88;5031430;28;20360;-35
2024/01/17 00:03:30;;;;;;;;;;;11.40;39.90;;;11.55;43.02;99431.16;5032132;28;19932;-35
2024/01/17 00:05:58;;;;;;;;;;;11.40;40.00;;;11.54;43.57;99419.34;5028694;28;20431;-35
2024/01/17 00:08:26;;;;;;;;;;;11.40;40.00;;;11.57;43.45;99429.72;5028734;28;19979;-35
2024/01/17 00:10:54;;;;;;;;;;;11.40;40.00;;;11.54;43.39;99426.88;5031474;28;20308;-35
2024/01/17 00:13:23;;;;;;;;;;;11.40;39.90;;;11.54;43.14;99419.34;5032137;28;20015;-35
2024/01/17 00:15:51;;;;;;;;;;;11.40;40.00;;;11.53;43.07;99422.56;5023804;28;19932;-35
2024/01/17 00:18:19;;;;;;;;;;;11.40;39.90;;;11.53;43.07;99423.47;5032143;28;19935;-35
2024/01/17 00:20:47;;;;;;;;;;;11.40;40.00;;;11.54;42.97;99419.34;5031248;28;20321;-35
2024/01/17 00:23:15;;;;;;;;;;;11.40;40.00;;;11.52;42.92;99410.75;5031913;28;20071;-35
2024/01/17 00:25:43;;;;;;;;;;;11.40;40.00;;;11.51;42.85;99413.97;5031772;28;19925;-35
2024/01/17 00:28:11;;;;;;;;;;;11.40;40.00;;;11.50;42.83;99414.75;5032337;28;19925;-35
2024/01/17 00:30:40;;;;;;;;;;;11.40;40.00;;;11.53;43.29;99407.53;5031363;28;19928;-36
2024/01/17 00:33:08;;;;;;;;;;;11.40;39.90;;;11.52;43.21;99410.75;5031740;28;20417;-35
2024/01/17 00:35:37;;;;;;;;;;;11.40;39.90;;;11.50;42.95;99397.19;5031381;28;19983;-35
2024/01/17 00:38:05;;;;;;;;;;;11.40;40.00;;;11.51;42.90;99393.91;5031927;28;19955;-35
2024/01/17 00:40:33;;;;;;;;;;;11.40;40.00;;;11.53;42.79;99389.97;5031333;28;20020;-35
2024/01/17 00:43:01;;;;;;;;;;;11.40;39.90;;;11.52;43.10;99381.53;5031898;28;19948;-36
2024/01/17 00:45:29;;;;;;;;;;;11.40;39.80;;;11.52;43.22;99385.66;5031564;28;20014;-35
2024/01/17 00:47:58;;;;;;;;;;;11.40;39.90;;;11.51;42.61;99374.75;5031672;28;20011;-35
2024/01/17 00:50:26;;;;;;;;;;;11.40;39.90;;;11.53;42.25;99372.41;5031357;28;19931;-35
2024/01/17 00:52:54;;;;;;;;;;;11.40;39.70;;;11.50;43.06;99378.00;5023594;28;20285;-35
2024/01/17 00:55:22;;;;;;;;;;;11.30;39.80;;;11.50;42.95;99362.06;5031627;28;19936;-35
2024/01/17 00:57:50;;;;;;;;;;;11.40;39.80;;;11.50;43.17;99362.97;5031527;28;19937;-35
2024/01/17 01:00:18;;;;;;;;;;;11.40;39.90;;;11.48;42.82;99358.50;5031610;28;19931;-35
2024/01/17 01:02:46;;;;;;;;;;;11.40;39.90;;;11.49;43.13;99355.25;5031385;28;19929;-35
2024/01/17 01:05:15;;;;;;;;;;;11.30;39.80;;;11.49;43.32;99355.25;5031613;28;20447;-35
2024/01/17 01:07:43;;;;;;;;;;;11.30;39.70;;;11.52;42.55;99356.47;5068481;22;19947;-30
2024/01/17 01:10:11;;;;;;;;;;;11.30;39.80;;;11.51;42.30;99353.78;5052574;28;20042;-30
2024/01/17 01:12:39;;;;;;;;;;;11.40;39.70;;;11.45;42.60;99338.09;5051367;28;19931;-31
2024/01/17 01:15:08;;;;;;;;;;;11.30;40.30;;;11.49;43.27;99350.25;5051739;28;19979;-32
2024/01/17 01:17:36;;;;;;;;;;;11.40;39.80;;;11.49;42.85;99346.13;5037517;28;19932;-32
2024/01/17 01:20:05;;;;;;;;;;;11.30;39.60;;;11.47;42.80;99342.56;5031633;28;19925;-31
2024/01/17 01:22:35;;;;;;;;;;;11.30;39.70;;;11.47;42.83;99336.66;5031091;28;19929;-32
2024/01/17 01:25:03;;;;;;;;;;;11.30;39.70;;;11.47;42.24;99332.53;5031370;28;19932;-35
2024/01/17 01:27:31;;;;;;;;;;;11.30;39.70;;;11.48;42.29;99333.41;5031027;28;19972;-37
2024/01/17 01:29:59;;;;;;;;;;;11.30;39.70;;;11.45;42.27;99328.06;5031447;28;20363;-36
2024/01/17 01:32:28;;;;;;;;;;;11.30;39.70;;;11.47;42.57;99326.63;5031091;28;19933;-35
2024/01/17 01:34:56;;;;;;;;;;;11.40;39.80;;;11.49;43.06;99337.72;5031689;28;20012;-31
2024/01/17 01:37:24;;;;;;;;;;;11.40;39.80;;;11.49;42.35;99337.72;5031532;28;20412;-32
2024/01/17 01:39:54;;;;;;;;;;;11.40;39.70;;;11.45;42.51;99333.97;5031798;28;19931;-31
2024/01/17 01:42:22;;;;;;;;;;;11.30;39.70;;;11.47;42.44;99341.66;5031326;28;19936;-31
2024/01/17 01:44:50;;;;;;;;;;;11.40;39.80;;;11.47;42.95;99331.63;5031277;28;20012;-33
2024/01/17 01:47:18;;;;;;;;;;;11.30;39.70;;;11.43;42.82;99322.03;5034986;28;19929;-33
2024/01/17 01:49:47;;;;;;;;;;;11.30;39.70;;;11.44;43.28;99312.16;5034805;28;19925;-32
2024/01/17 01:52:17;;;;;;;;;;;11.30;39.90;;;11.49;42.96;99298.47;5034764;28;20392;-32
2024/01/17 01:54:45;;;;;;;;;;;11.30;39.70;;;11.49;43.03;99285.03;5034571;28;20008;-36
2024/01/17 01:57:14;;;;;;;;;;;11.30;39.80;;;11.44;43.15;99281.16;5034952;28;19948;-32
2024/01/17 01:59:42;;;;;;;;;;;11.30;39.70;;;11.46;43.24;99282.19;5034579;28;20377;-33
2024/01/17 02:02:10;;;;;;;;;;;11.30;39.70;;;11.40;43.22;99269.91;5034422;28;19925;-33
2024/01/17 02:04:38;;;;;;;;;;;11.30;39.80;;;11.45;42.71;99257.84;5034978;28;20270;-33
2024/01/17 02:07:07;;;;;;;;;;;11.30;39.80;;;11.46;43.09;99265.53;5033002;28;20438;-32
2024/01/17 02:09:34;;;;;;;;;;;11.30;39.80;;;11.45;43.11;99262.84;5035426;28;20292;-32
2024/01/17 02:12:02;;;;;;;;;;;11.30;39.80;;;11.44;42.71;99253.59;5034682;28;19972;-33
2024/01/17 02:14:32;;;;;;;;;;;11.30;39.80;;;11.41;42.29;99245.72;5035072;28;20016;-32
2024/01/17 02:17:00;;;;;;;;;;;11.30;39.80;;;11.45;42.42;99247.81;5027221;28;19929;-34
2024/01/17 02:19:28;;;;;;;;;;;11.30;39.80;;;11.44;42.89;99246.94;5034958;28;20307;-34
2024/01/17 02:21:56;;;;;;;;;;;11.30;39.70;;;11.45;42.61;99237.78;5034135;28;19932;-34
2024/01/17 02:24:28;;;;;;;;;;;11.30;39.80;;;11.45;43.01;99226.13;5040500;28;19925;-34
2024/01/17 02:26:59;;;;;;;;;;;11.30;39.70;;;11.49;43.03;99229.88;5042898;28;20308;-33
2024/01/17 02:29:27;;;;;;;;;;;11.30;39.70;;;11.49;42.68;99224.84;5039932;28;19925;-32
2024/01/17 02:31:55;;;;;;;;;;;11.30;39.70;;;11.52;42.78;99230.16;5040253;28;20331;-32
2024/01/17 02:34:23;;;;;;;;;;;11.40;39.80;;;11.50;42.61;99217.50;5038025;28;19935;-32
2024/01/17 02:36:51;;;;;;;;;;;11.40;39.70;;;11.51;43.40;99208.31;5034786;28;20036;-32
2024/01/17 02:39:19;;;;;;;;;;;11.30;39.80;;;11.46;42.45;99199.44;5034417;28;20396;-32
2024/01/17 02:41:49;;;;;;;;;;;11.30;39.70;;;11.51;42.61;99188.25;5033567;28;20033;-32
2024/01/17 02:44:16;;;;;;;;;;;11.40;39.80;;;11.53;42.33;99186.78;5034461;28;19925;-33
2024/01/17 02:46:44;;;;;;;;;;;11.40;39.80;;;11.51;42.50;99183.22;5035856;28;20047;-34
2024/01/17 02:49:19;;;;;;;;;;;11.40;39.80;;;11.52;42.73;99180.88;5034589;28;20004;-34
2024/01/17 02:51:47;;;;;;;;;;;11.40;39.80;;;11.52;42.41;99174.97;5033666;28;19988;-32
2024/01/17 02:54:14;;;;;;;;;;;11.40;39.80;;;11.49;43.03;99164.66;5035532;28;19964;-34
2024/01/17 02:56:42;;;;;;;;;;;11.40;39.80;;;11.54;42.97;99161.00;5034869;28;19932;-34
2024/01/17 02:59:12;;;;;;;;;;;11.40;39.70;;;11.53;42.98;99146.66;5035862;28;19925;-34
2024/01/17 03:01:40;;;;;;;;;;;11.40;39.80;;;11.53;42.33;99145.06;5035690;28;19979;-34
2024/01/17 03:04:08;;;;;;;;;;;11.40;39.70;;;11.50;42.67;99136.34;5034976;28;19987;-30
2024/01/17 03:06:35;;;;;;;;;;;11.40;39.70;;;11.55;42.13;99140.19;5035201;28;19925;-39
2024/01/17 03:09:03;;;;;;;;;;;11.40;39.70;;;11.56;43.05;99136.97;5035272;28;19947;-32
2024/01/17 03:11:32;;;;;;;;;;;11.40;39.70;;;11.54;42.96;99125.88;5033748;28;19979;-32
2024/01/17 03:14:01;;;;;;;;;;;11.40;39.70;;;11.55;42.25;99130.16;5033609;28;19933;-34
2024/01/17 03:16:30;;;;;;;;;;;11.40;39.70;;;11.57;42.56;99126.19;5033796;28;19980;-35
2024/01/17 03:18:58;;;;;;;;;;;11.40;39.70;;;11.53;42.44;99119.09;5033270;28;20008;-32
2024/01/17 03:21:26;;;;;;;;;;;11.40;39.70;;;11.50;42.30;99118.78;5032751;28;19976;-32
2024/01/17 03:23:54;;;;;;;;;;;11.40;39.80;;;11.53;42.57;99116.56;5033419;28;19925;-32
2024/01/17 03:26:23;;;;;;;;;;;11.40;39.80;;;11.54;43.14;99113.34;5033209;28;19925;-32
2024/01/17 03:28:51;;;;;;;;;;;11.40;39.80;;;11.52;43.25;99109.78;5033234;28;19925;-34
2024/01/17 03:31:19;;;;;;;;;;;11.30;39.70;;;11.54;42.67;99098.28;5032945;28;19948;-36
2024/01/17 03:33:48;;;;;;;;;;;11.40;39.80;;;11.55;42.78;99100.97;5033204;28;20024;-31
2024/01/17 03:36:16;;;;;;;;;;;11.40;39.80;;;11.56;42.29;99104.34;5033180;28;19948;-33
2024/01/17 03:38:44;;;;;;;;;;;11.40;39.70;;;11.53;42.32;99096.50;5032992;28;19925;-33
2024/01/17 03:41:12;;;;;;;;;;;11.40;39.70;;;11.53;42.46;99086.47;5032653;28;19925;-33
2024/01/17 03:43:40;;;;;;;;;;;11.40;39.70;;;11.53;42.80;99076.44;5033364;28;20020;-34
2024/01/17 03:46:08;;;;;;;;;;;11.40;39.80;;;11.54;42.54;99075.72;5032981;28;19961;-31
2024/01/17 03:48:36;;;;;;;;;;;11.40;39.70;;;11.52;42.58;99072.16;5033481;28;20011;-33
2024/01/17 03:51:06;;;;;;;;;;;11.40;39.70;;;11.53;42.35;99066.41;5024864;28;19925;-34
2024/01/17 03:53:34;;;;;;;;;;;11.40;39.70;;;11.51;42.17;99067.88;5033555;28;20452;-34
2024/01/17 03:56:02;;;;;;;;;;;11.40;39.70;;;11.52;42.48;99069.66;5033618;28;19925;-32
2024/01/17 03:58:30;;;;;;;;;;;11.40;39.70;;;11.49;42.28;99059.31;5040136;28;19975;-34
2024/01/17 04:01:01;;;;;;;;;;;11.40;39.80;;;11.53;42.64;99071.44;5034342;28;20062;-32
2024/01/17 04:03:29;;;;;;;;;;;11.40;39.70;;;11.56;42.57;99066.72;5032861;28;19929;-35
2024/01/17 04:05:57;;;;;;;;;;;11.40;39.60;;;11.55;42.80;99064.94;5032211;28;19925;-31
2024/01/17 04:08:27;;;;;;;;;;;11.40;39.60;;;11.56;42.71;99066.72;5022094;28;19948;-32
2024/01/17 04:10:55;;;;;;;;;;;11.40;39.60;;;11.57;42.51;99063.50;5032287;28;19925;-32
2024/01/17 04:13:22;;;;;;;;;;;11.40;39.60;;;11.54;42.22;99058.16;5032652;28;20309;-32
2024/01/17 04:15:51;;;;;;;;;;;11.40;39.50;;;11.58;42.25;99061.13;5032488;28;19955;-33
2024/01/17 04:18:19;;;;;;;;;;;11.40;39.50;;;11.60;43.08;99053.75;5033015;28;19929;-32
2024/01/17 04:20:47;;;;;;;;;;;11.40;39.60;;;11.58;42.59;99040.16;5032026;28;19932;-32
2024/01/17 04:23:15;;;;;;;;;;;11.40;39.60;;;11.52;42.92;99009.44;5032905;28;19929;-32
2024/01/17 04:25:45;;;;;;;;;;;11.40;39.50;;;11.59;42.54;99019.38;5032637;28;19948;-32
2024/01/17 04:28:13;;;;;;;;;;;11.40;39.50;;;11.58;42.21;99012.56;5033008;28;19925;-34
2024/01/17 04:30:41;;;;;;;;;;;11.40;39.60;;;11.57;42.70;99008.31;5033237;28;19979;-36
2024/01/17 04:33:09;;;;;;;;;;;11.40;39.50;;;11.61;42.18;99010.38;5032548;28;19936;-34
2024/01/17 04:35:37;;;;;;;;;;;11.40;39.50;;;11.60;42.96;98998.56;5032875;28;19925;-33
2024/01/17 04:38:05;;;;;;;;;;;11.40;39.60;;;11.62;41.88;99002.13;5025114;28;19925;-32
2024/01/17 04:40:33;;;;;;;;;;;11.40;39.50;;;11.61;42.22;99003.75;5031776;28;19960;-32
2024/01/17 04:43:03;;;;;;;;;;;11.40;39.50;;;11.60;42.47;98988.53;5032046;28;19987;-33
2024/01/17 04:45:31;;;;;;;;;;;11.40;39.50;;;11.51;42.66;98972.56;5031914;28;19984;-33
2024/01/17 04:47:59;;;;;;;;;;;11.40;39.50;;;11.55;42.40;98964.63;5031837;28;20015;-33
2024/01/17 04:50:29;;;;;;;;;;;11.40;39.50;;;11.55;42.69;98962.13;5031771;28;20457;-32
2024/01/17 04:52:57;;;;;;;;;;;11.40;39.50;;;11.59;42.58;98961.69;5032685;28;19925;-33
2024/01/17 04:55:25;;;;;;;;;;;11.40;39.50;;;11.61;42.25;98942.66;5039542;28;20024;-34
2024/01/17 04:57:53;;;;;;;;;;;11.40;39.50;;;11.60;42.58;98940.88;5035049;28;19987;-33
2024/01/17 05:00:22;;;;;;;;;;;11.40;39.50;;;11.59;42.86;98934.97;5032974;28;20107;-32
2024/01/17 05:02:50;;;;;;;;;;;11.40;39.50;;;11.58;42.66;98919.78;5033615;28;20335;-34
2024/01/17 05:05:18;;;;;;;;;;;11.40;39.50;;;11.55;42.63;98909.44;5032576;28;19925;-32
2024/01/17 05:07:46;;;;;;;;;;;11.40;39.50;;;11.55;43.01;98910.34;5031927;28;19929;-32
2024/01/17 05:10:14;;;;;;;;;;;11.40;39.50;;;11.57;42.76;98918.03;5032305;28;19964;-33
2024/01/17 05:12:42;;;;;;;;;;;11.40;39.50;;;11.51;42.91;98897.31;5031459;28;20308;-33
2024/01/17 05:15:10;;;;;;;;;;;11.40;39.60;;;11.53;42.17;98896.75;5024467;28;19931;-34
2024/01/17 05:17:40;;;;;;;;;;;11.40;39.60;;;11.55;42.46;98895.28;5032707;28;19947;-31
2024/01/17 05:20:09;;;;;;;;;;;11.40;39.60;;;11.51;42.71;98892.31;5024339;28;20023;-33
2024/01/17 05:22:39;;;;;;;;;;;11.40;39.60;;;11.54;42.60;98882.59;5035788;28;20018;-34
2024/01/17 05:25:11;;;;;;;;;;;11.40;39.60;;;11.54;42.37;98878.47;5035087;28;19932;-33
2024/01/17 05:27:39;;;;;;;;;;;11.40;39.60;;;11.50;42.97;98860.47;5035915;28;19947;-34
2024/01/17 05:30:09;;;;;;;;;;;11.40;39.60;;;11.52;43.08;98864.00;5035269;28;20465;-36
2024/01/17 05:32:45;;;;;;;;;;;11.40;39.60;;;11.53;42.00;98863.25;5035828;28;20440;-33
2024/01/17 05:35:14;;;;;;;;;;;11.40;39.60;;;11.54;42.42;98857.50;5029724;28;20282;-33
2024/01/17 05:37:42;;;;;;;;;;;11.40;39.60;;;11.51;42.54;98853.06;5035266;28;19929;-33
2024/01/17 05:40:11;;;;;;;;;;;11.40;39.60;;;11.50;42.67;98845.44;5027420;28;20339;-33
2024/01/17 05:42:39;;;;;;;;;;;11.40;39.60;;;11.53;42.22;98830.66;5035026;28;19948;-33
2024/01/17 05:45:08;;;;;;;;;;;11.40;39.60;;;11.54;42.52;98837.44;5035637;28;19964;-32
2024/01/17 05:47:36;;;;;;;;;;;11.40;39.60;;;11.52;42.45;98828.88;5035993;28;19925;-33
2024/01/17 05:50:09;;;;;;;;;;;11.40;39.50;;;11.54;41.93;98828.31;5035422;28;19933;-33
2024/01/17 05:52:38;;;;;;;;;;;11.40;39.50;;;11.52;42.67;98836.41;5035327;28;19925;-32
2024/01/17 05:55:07;;;;;;;;;;;11.40;39.60;;;11.52;42.84;98833.91;5035029;28;19932;-33
2024/01/17 05:57:36;;;;;;;;;;;11.40;39.60;;;11.51;42.93;98832.13;5035108;28;19925;-36
2024/01/17 06:00:04;;;;;;;;;;;11.40;39.60;;;11.50;42.81;98820.34;5035655;28;20016;-35
2024/01/17 06:02:32;;;;;;;;;;;11.40;39.60;;;11.53;42.27;98800.56;5034574;28;19929;-32
2024/01/17 06:05:00;;;;;;;;;;;11.40;39.50;;;11.50;42.91;98796.16;5034968;28;19925;-33
2024/01/17 06:07:29;;;;;;;;;;;11.40;39.60;;;11.54;42.05;98792.31;5034804;28;19972;-33
2024/01/17 06:09:57;;;;;;;;;;;11.40;39.60;;;11.52;42.55;98783.75;5034937;28;19925;-32
2024/01/17 06:12:25;;;;;;;;;;;11.40;39.50;;;10.87;42.79;98665.53;5034702;28;19925;-32
2024/01/17 06:14:53;;;;;;;;;;;11.40;39.60;;;11.56;42.03;98775.78;5035622;28;19925;-32
2024/01/17 06:17:21;;;;;;;;;;;11.40;39.50;;;11.54;42.03;98772.25;5034585;28;20392;-33
2024/01/17 06:19:49;;;;;;;;;;;11.40;39.60;;;11.46;41.98;98763.09;5034511;28;19925;-32
2024/01/17 06:22:18;;;;;;;;;;;11.40;39.60;;;11.48;42.99;98771.66;5034138;28;19972;-33
2024/01/17 06:24:48;;;;;;;;;;;11.30;39.50;;;11.46;42.60;98773.13;5035060;28;19929;-38
2024/01/17 06:27:16;;;;;;;;;;;11.30;39.50;;;11.50;42.77;98780.22;5034825;28;19925;-32
2024/01/17 06:29:45;;;;;;;;;;;11.40;39.60;;;11.45;42.44;98766.34;5034843;28;19929;-34
2024/01/17 06:32:13;;;;;;;;;;;11.30;39.50;;;11.44;42.39;98749.56;5026237;28;19925;-33
2024/01/17 06:34:43;;;;;;;;;;;11.30;39.50;;;11.48;41.98;98762.50;5035145;28;19925;-32
2024/01/17 06:37:10;;;;;;;;;;;11.40;39.60;;;11.46;42.85;98763.09;5035171;28;19956;-34
2024/01/17 06:39:38;;;;;;;;;;;11.30;39.50;;;11.47;42.13;98764.88;5035297;28;20012;-34
2024/01/17 06:42:08;;;;;;;;;;;11.30;39.50;;;11.46;42.17;98760.59;5034340;28;20027;-34
2024/01/17 06:44:36;;;;;;;;;;;11.30;39.50;;;11.49;42.34;98748.34;5035325;28;19925;-32
2024/01/17 06:47:04;;;;;;;;;;;11.30;39.50;;;11.42;42.80;98741.88;5035648;28;19929;-32
2024/01/17 06:49:32;;;;;;;;;;;11.30;39.50;;;11.43;42.53;98747.78;5034875;28;20254;-33
2024/01/17 06:52:00;;;;;;;;;;;11.30;39.50;;;11.43;42.54;98740.25;5034636;28;19932;-35
2024/01/17 06:54:28;;;;;;;;;;;11.30;39.50;;;11.44;42.12;98732.00;5035286;28;19933;-33
2024/01/17 06:56:56;;;;;;;;;;;11.30;39.50;;;11.46;41.98;98738.91;5034265;28;19998;-33
2024/01/17 06:59:25;;;;;;;;;;;11.30;39.50;;;11.43;42.73;98743.66;5034170;28;19940;-32
2024/01/17 07:01:54;;;;;;;;;;;11.30;39.50;;;11.45;42.20;98738.75;5032998;28;19925;-33
2024/01/17 07:04:22;;;;;;;;;;;11.30;39.50;;;11.49;42.41;98730.81;5033878;28;20026;-32
2024/01/17 07:06:50;;;;;;;;;;;11.30;39.60;;;11.46;42.98;98728.00;5050755;22;19925;-36
2024/01/17 07:09:18;;;;;;;;;;;11.30;39.50;;;11.46;42.57;98715.44;5071156;28;19928;-36
2024/01/17 07:11:47;;;;;;;;;;;11.30;39.50;;;11.42;42.60;98715.91;5073575;28;20015;-36
2024/01/17 07:14:15;;;;;;;;;;;11.30;39.50;;;11.41;42.03;98711.63;5073447;28;19937;-36
2024/01/17 07:16:44;;;;;;;;;;;11.30;39.50;;;11.44;42.09;98710.31;5072885;28;20007;-36
2024/01/17 07:19:12;;;;;;;;;;;11.30;39.50;;;11.46;43.00;98710.44;5072815;28;20031;-36
2024/01/17 07:21:42;;;;;;;;;;;11.30;39.50;;;11.41;42.01;98711.63;5072321;28;19971;-37
2024/01/17 07:24:10;;;;;;;;;;;11.30;39.50;;;11.40;41.96;98707.34;5072962;28;19936;-36
2024/01/17 07:26:38;;;;;;;;;;;11.30;39.50;;;11.45;42.37;98706.16;5072802;28;19928;-36
2024/01/17 07:29:07;;;;;;;;;;;11.30;39.50;;;11.43;42.41;98702.63;5072623;28;19924;-36
2024/01/17 07:31:34;;;;;;;;;;;11.30;39.60;;;11.43;42.40;98696.00;5072060;28;19978;-36
2024/01/17 07:34:04;;;;;;;;;;;11.30;39.50;;;11.43;41.96;98690.09;5072582;28;19930;-36
2024/01/17 07:36:32;;;;;;;;;;;11.30;39.50;;;11.43;42.78;98690.09;5064443;28;19929;-36
2024/01/17 07:39:00;;;;;;;;;;;11.30;39.50;;;11.43;42.42;98677.56;5072670;28;19928;-36
2024/01/17 07:41:29;;;;;;;;;;;11.30;39.50;;;11.40;42.85;98673.13;5071909;28;20303;-35
2024/01/17 07:43:57;;;;;;;;;;;11.20;39.40;;;11.41;42.51;98674.91;5071884;28;19979;-35
2024/01/17 07:46:25;;;;;;;;;;;11.30;39.50;;;11.45;42.52;98671.94;5072399;28;20372;-35
2024/01/17 07:48:54;;;;;;;;;;;11.30;39.50;;;11.44;42.45;98667.69;5071876;28;20371;-36
2024/01/17 07:51:24;;;;;;;;;;;11.30;39.50;;;11.44;42.53;98664.28;5072430;28;19928;-35
2024/01/17 07:53:53;;;;;;;;;;;11.30;39.40;;;11.42;42.05;98658.25;5074715;28;19924;-35
2024/01/17 07:56:21;;;;;;;;;;;11.30;39.40;;;11.43;42.10;98652.50;5081804;28;19925;-35
2024/01/17 07:58:50;;;;;;;;;;;11.30;39.50;;;11.38;42.10;98634.47;5072754;28;19925;-35
2024/01/17 08:01:17;;;;;;;;;;;11.30;39.50;;;11.42;42.08;98635.69;5060209;28;20295;-35
2024/01/17 08:03:45;;;;;;;;;;;11.30;39.50;;;11.42;42.24;98630.66;5068507;28;19925;-35
2024/01/17 08:06:14;;;;;;;;;;;11.30;39.50;;;11.44;42.05;98624.19;5072610;28;20081;-35
2024/01/17 08:08:43;;;;;;;;;;;11.30;39.50;;;11.42;42.33;98610.59;5072925;28;20291;-35
2024/01/17 08:11:11;;;;;;;;;;;11.30;39.40;;;11.43;42.69;98607.34;5075600;28;19928;-35
2024/01/17 08:13:39;;;;;;;;;;;11.30;39.50;;;11.47;41.74;98604.38;5073920;28;19987;-35
2024/01/17 08:16:07;;;;;;;;;;;11.30;39.40;;;11.45;42.29;98598.34;5072501;28;19928;-34
2024/01/17 08:18:35;;;;;;;;;;;11.30;39.40;;;11.43;42.19;98592.31;5072301;28;19959;-34
2024/01/17 08:21:04;;;;;;;;;;;11.30;39.40;;;11.41;42.45;98583.75;5071356;28;19932;-35
2024/01/17 08:23:34;;;;;;;;;;;11.30;39.50;;;11.43;42.54;98577.28;5072498;28;19924;-35
2024/01/17 08:26:04;;;;;;;;;;;11.30;39.50;;;11.47;42.46;98571.78;5071489;28;20015;-35
2024/01/17 08:28:32;;;;;;;;;;;11.30;39.40;;;11.45;42.26;98565.75;5071762;28;19930;-35
2024/01/17 08:31:00;;;;;;;;;;;11.30;39.40;;;11.44;41.92;98558.97;5071611;28;19950;-34
2024/01/17 08:33:28;;;;;;;;;;;11.30;39.40;;;11.46;42.39;98549.97;5064127;28;20281;-35
2024/01/17 08:35:56;;;;;;;;;;;11.30;39.30;;;11.45;42.75;98545.69;5071777;28;19994;-34
2024/01/17 08:38:24;;;;;;;;;;;11.30;39.40;;;11.46;42.46;98547.44;5072182;28;19964;-34
2024/01/17 08:40:52;;;;;;;;;;;11.30;39.40;;;11.49;42.59;98542.72;5071060;28;19968;-35
2024/01/17 08:43:21;;;;;;;;;;;11.30;39.30;;;11.45;42.69;98533.16;5064042;28;19925;-35
2024/01/17 08:45:50;;;;;;;;;;;11.30;39.30;;;11.44;42.25;98528.91;5071862;28;20074;-34
2024/01/17 08:48:18;;;;;;;;;;;11.30;39.40;;;11.45;42.32;98525.63;5071369;28;20023;-35
2024/01/17 08:50:46;;;;;;;;;;;11.30;39.40;;;11.44;42.59;98508.84;5071078;28;20360;-34
2024/01/17 08:53:14;;;;;;;;;;;11.30;39.40;;;11.45;42.44;98510.56;5071388;28;19924;-35
2024/01/17 08:55:42;;;;;;;;;;;11.30;39.40;;;11.45;42.28;98500.56;5074471;28;19931;-34
2024/01/17 08:58:13;;;;;;;;;;;11.30;39.40;;;11.46;42.29;98497.31;5075923;28;19924;-35
2024/01/17 09:00:42;;;;;;;;;;;11.30;39.40;;;11.46;42.35;98502.31;5075072;28;20435;-35
2024/01/17 09:03:10;;;;;;;;;;;11.30;39.30;;;11.46;42.41;98492.28;5075517;28;19924;-34
2024/01/17 09:05:39;;;;;;;;;;;11.30;39.40;;;11.47;42.00;98499.06;5075892;28;19924;-34
2024/01/17 09:08:07;;;;;;;;;;;11.30;39.30;;;11.45;42.67;98481.38;5074972;28;19924;-34
2024/01/17 09:10:35;;;;;;;;;;;11.30;39.30;;;11.47;42.00;98479.91;5069495;28;20028;-35
2024/01/17 09:13:03;;;;;;;;;;;11.30;39.30;;;11.47;42.25;98479.00;5073000;28;20337;-35
2024/01/17 09:15:31;;;;;;;;;;;11.30;40.00;;;11.48;42.12;98470.75;5075277;28;19982;-35
2024/01/17 09:18:01;;;;;;;;;;;11.30;39.40;;;11.46;42.03;98472.22;5075542;28;19972;-34
2024/01/17 09:20:29;;;;;;;;;;;11.30;39.40;;;11.47;42.26;98458.97;5074579;28;19954;-35
2024/01/17 09:22:57;;;;;;;;;;;11.30;39.40;;;11.47;42.83;98458.97;5066859;28;20451;-35
2024/01/17 09:25:25;;;;;;;;;;;11.30;39.30;;;11.48;42.55;98460.72;5075148;28;20031;-35
2024/01/17 09:27:53;;;;;;;;;;;11.30;39.30;;;11.51;42.60;98455.97;5075069;28;20411;-36
2024/01/17 09:30:21;;;;;;;;;;;11.30;39.30;;;11.46;42.97;98452.16;5074179;28;19924;-35
2024/01/17 09:32:49;;;;;;;;;;;11.40;39.40;;;11.50;42.50;98449.22;5075292;28;19924;-35
2024/01/17 09:35:18;;;;;;;;;;;11.40;39.40;;;11.51;42.71;98456.84;5075052;28;19932;-34
2024/01/17 09:37:46;;;;;;;;;;;11.40;39.40;;;11.52;42.35;98452.72;5075015;28;19931;-36
2024/01/17 09:40:14;;;;;;;;;;;11.40;39.40;;;11.52;41.81;98450.22;5074771;28;20022;-36
2024/01/17 09:42:42;;;;;;;;;;;11.40;39.40;;;11.51;42.52;98445.94;5074128;28;19935;-36
2024/01/17 09:45:10;;;;;;;;;;;11.40;39.40;;;11.55;42.33;98448.88;5074839;28;20018;-36
2024/01/17 09:47:38;;;;;;;;;;;11.40;39.40;;;11.59;42.13;98445.03;5074415;28;19935;-36
2024/01/17 09:50:07;;;;;;;;;;;11.40;39.40;;;11.55;41.90;98443.88;5074650;28;20391;-36
2024/01/17 09:52:36;;;;;;;;;;;11.40;39.40;;;11.58;42.05;98438.22;5069326;28;19986;-36
2024/01/17 09:55:05;;;;;;;;;;;11.40;39.40;;;11.58;42.48;98443.25;5071940;28;19972;-35
2024/01/17 09:57:34;;;;;;;;;;;11.40;39.40;;;11.57;42.42;98446.53;5074603;28;20445;-36
2024/01/17 10:00:06;;;;;;;;;;;11.40;39.40;;;11.55;41.91;98440.47;5074254;28;19959;-35
2024/01/17 10:02:35;;;;;;;;;;;11.40;39.40;;;11.57;42.51;98436.50;5074045;28;19955;-36
2024/01/17 10:05:04;;;;;;;;;;;11.40;39.40;;;11.53;42.69;98419.38;5074133;28;19931;-36
2024/01/17 10:07:32;;;;;;;;;;;11.40;39.40;;;11.60;41.98;98421.72;5073675;28;19929;-36
2024/01/17 10:10:01;;;;;;;;;;;11.40;39.40;;;11.60;42.06;98411.69;5074230;28;20442;-35
2024/01/17 10:12:30;;;;;;;;;;;11.40;39.30;;;11.59;42.11;98410.78;5073905;28;19960;-35
2024/01/17 10:15:00;;;;;;;;;;;11.40;39.40;;;11.59;42.35;98404.91;5074384;28;19931;-34
2024/01/17 10:17:29;;;;;;;;;;;11.40;39.40;;;11.59;43.00;98394.88;5066433;28;19924;-34
2024/01/17 10:19:57;;;;;;;;;;;11.40;39.40;;;11.62;42.81;98390.13;5074389;28;20464;-35
2024/01/17 10:22:25;;;;;;;;;;;11.40;39.40;;;11.60;42.52;98376.56;5081785;28;19925;-34
2024/01/17 10:24:53;;;;;;;;;;;11.40;39.40;;;11.60;42.76;98382.47;5074415;28;19931;-34
2024/01/17 10:27:22;;;;;;;;;;;11.50;39.40;;;11.62;41.96;98381.00;5073573;28;19929;-35
2024/01/17 10:29:51;;;;;;;;;;;11.50;39.50;;;11.62;42.88;98370.06;5074057;28;19925;-35
2024/01/17 10:32:19;;;;;;;;;;;11.50;39.40;;;11.62;42.75;98367.56;5073334;28;19925;-35
2024/01/17 10:34:47;;;;;;;;;;;11.50;39.50;;;11.60;42.07;98356.50;5073875;28;19931;-36
2024/01/17 10:37:17;;;;;;;;;;;11.50;39.50;;;11.60;42.55;98352.38;5074204;28;19928;-36
2024/01/17 10:39:44;;;;;;;;;;;11.50;39.50;;;11.59;42.40;98344.72;5074084;28;19963;-36
2024/01/17 10:42:19;;;;;;;;;;;11.50;39.50;;;11.61;42.51;98353.25;5073105;28;19929;-36
2024/01/17 10:44:48;;;;;;;;;;;11.40;39.50;;;11.58;42.39;98338.81;5073972;28;20323;-36
2024/01/17 10:47:16;;;;;;;;;;;11.40;39.50;;;11.59;42.82;98334.69;5076711;28;19924;-35
2024/01/17 10:49:44;;;;;;;;;;;11.40;39.50;;;11.56;42.15;98350.34;5074075;28;19929;-35
2024/01/17 10:52:14;;;;;;;;;;;11.40;39.60;;;11.55;42.59;98338.56;5071257;28;19935;-35
2024/01/17 10:54:45;;;;;;;;;;;11.40;39.60;;;11.55;42.02;98327.63;5068522;28;19954;-36
2024/01/17 10:57:13;;;;;;;;;;;11.40;39.60;;;11.57;42.46;98316.13;5073866;28;19928;-35
2024/01/17 10:59:41;;;;;;;;;;;11.40;39.60;;;11.56;42.00;98319.38;5073880;28;19928;-35
2024/01/17 11:02:15;;;;;;;;;;;11.40;39.50;;;11.54;42.34;98306.69;5073023;28;19955;-36
2024/01/17 11:04:43;;;;;;;;;;;11.40;39.60;;;11.57;42.53;98311.13;5076185;28;19925;-36
2024/01/17 11:07:11;;;;;;;;;;;11.40;39.60;;;11.59;42.75;98305.47;5074740;28;20033;-36
2024/01/17 11:09:39;;;;;;;;;;;11.40;39.60;;;11.57;42.50;98308.59;5073540;28;20018;-36
2024/01/17 11:12:07;;;;;;;;;;;11.40;39.50;;;11.56;42.04;98300.19;5072999;28;19950;-36
2024/01/17 11:14:35;;;;;;;;;;;11.40;39.50;;;11.56;42.63;98285.16;5068969;28;19925;-36
2024/01/17 11:17:04;;;;;;;;;;;11.40;39.60;;;11.52;42.75;98287.22;5069419;28;20391;-35
2024/01/17 11:19:34;;;;;;;;;;;11.40;39.60;;;11.56;42.59;98294.31;5072558;28;19928;-35
2024/01/17 11:22:02;;;;;;;;;;;11.40;39.60;;;11.59;42.98;98290.41;5072564;28;19924;-35